createdAt,value
2023-02-04T00:01:22.442Z,39.50
2023-02-04T00:03:49.172Z,31.50
2023-02-04T00:06:15.949Z,36.53
2023-02-04T00:08:42.642Z,50.20
2023-02-04T00:11:09.438Z,32.20
2023-02-04T00:16:12.754Z,41.73
2023-02-04T00:18:39.499Z,37.60
2023-02-04T00:21:06.470Z,60.53
2023-02-04T00:23:33.210Z,52.97
2023-02-04T00:25:59.911Z,47.33
2023-02-04T00:28:26.625Z,50.07
2023-02-04T00:30:53.316Z,35.47
2023-02-04T00:33:20.142Z,50.70
2023-02-04T00:35:46.872Z,25.73
2023-02-04T00:38:13.937Z,25.80
2023-02-04T00:40:40.659Z,42.93
2023-02-04T00:43:07.393Z,40.83
2023-02-04T00:45:34.174Z,34.83
2023-02-04T00:48:01.105Z,40.77
2023-02-04T00:50:27.906Z,36.77
2023-02-04T00:52:54.659Z,38.50
2023-02-04T00:55:21.534Z,44.90
2023-02-04T00:57:48.318Z,43.57
2023-02-04T01:00:16.390Z,41.20
2023-02-04T01:02:43.178Z,35.63
2023-02-04T01:05:10.451Z,50.93
2023-02-04T01:07:37.285Z,48.10
2023-02-04T01:10:04.590Z,33.97
2023-02-04T01:12:31.352Z,37.87
2023-02-04T01:14:58.485Z,29.33
2023-02-04T01:17:25.294Z,54.63
2023-02-04T01:19:52.047Z,50.37
2023-02-04T01:22:18.842Z,39.80
2023-02-04T01:24:45.530Z,37.90
2023-02-04T01:27:12.245Z,33.80
2023-02-04T01:29:38.935Z,36.97
2023-02-04T01:32:06.182Z,45.83
2023-02-04T01:34:33.019Z,39.67
2023-02-04T01:36:59.755Z,39.27
2023-02-04T01:39:26.426Z,60.20
2023-02-04T01:41:53.363Z,52.03
2023-02-04T01:44:20.148Z,39.60
2023-02-04T01:46:46.983Z,36.03
2023-02-04T01:49:13.753Z,51.13
2023-02-04T01:51:40.564Z,35.77
2023-02-04T01:54:11.693Z,36.23
2023-02-04T01:56:38.871Z,33.93
2023-02-04T01:59:11.991Z,36.77
2023-02-04T02:01:41.883Z,31.70
2023-02-04T02:04:14.746Z,40.83
2023-02-04T02:06:46.941Z,29.70
2023-02-04T02:09:13.973Z,38.73
2023-02-04T02:11:40.814Z,46.70
2023-02-04T02:14:08.000Z,22.40
2023-02-04T02:16:34.793Z,24.77
2023-02-04T02:19:01.841Z,28.47
2023-02-04T02:21:51.575Z,31.30
2023-02-04T02:24:26.245Z,20.43
2023-02-04T02:26:54.613Z,16.10
2023-02-04T02:29:22.187Z,28.97
2023-02-04T02:31:49.310Z,21.17
2023-02-04T02:34:16.231Z,15.23
2023-02-04T02:36:43.243Z,32.03
2023-02-04T02:39:10.106Z,27.10
2023-02-04T02:41:37.280Z,18.77
2023-02-04T02:44:04.303Z,28.10
2023-02-04T02:46:31.477Z,19.93
2023-02-04T02:48:58.242Z,31.90
2023-02-04T02:51:25.052Z,25.90
2023-02-04T02:53:51.757Z,19.70
2023-02-04T02:56:20.061Z,36.63
2023-02-04T02:58:47.260Z,20.07
2023-02-04T03:01:14.388Z,19.63
2023-02-04T03:03:51.817Z,21.50
2023-02-04T03:06:26.632Z,26.60
2023-02-04T03:08:55.998Z,21.97
2023-02-04T03:11:23.673Z,25.57
2023-02-04T03:13:51.222Z,26.40
2023-02-04T03:16:18.177Z,21.90
2023-02-04T03:18:45.047Z,18.80
2023-02-04T03:21:11.752Z,22.23
2023-02-04T03:23:38.818Z,24.57
2023-02-04T03:26:06.179Z,19.90
2023-02-04T03:28:33.615Z,15.57
2023-02-04T03:31:00.573Z,14.40
2023-02-04T03:33:31.841Z,20.50
2023-02-04T03:35:59.244Z,27.30
2023-02-04T03:38:26.633Z,17.03
2023-02-04T03:40:53.544Z,13.67
2023-02-04T03:43:20.197Z,13.80
2023-02-04T03:45:47.832Z,19.93
2023-02-04T03:48:14.594Z,27.43
2023-02-04T03:50:41.724Z,13.80
2023-02-04T03:53:08.761Z,11.13
2023-02-04T03:55:36.119Z,10.13
2023-02-04T03:58:04.209Z,9.00
2023-02-04T04:00:32.362Z,11.33
2023-02-04T04:02:59.816Z,10.63
2023-02-04T04:05:27.964Z,17.50
2023-02-04T04:07:54.702Z,18.57
2023-02-04T04:10:21.496Z,18.00
2023-02-04T04:12:48.228Z,15.50
2023-02-04T04:15:15.024Z,18.57
2023-02-04T04:17:41.746Z,11.93
2023-02-04T04:20:09.021Z,25.93
2023-02-04T04:22:35.800Z,17.33
2023-02-04T04:25:02.540Z,13.73
2023-02-04T04:27:30.159Z,14.77
2023-02-04T04:29:57.206Z,16.43
2023-02-04T04:32:23.976Z,16.40
2023-02-04T04:34:50.779Z,17.20
2023-02-04T04:37:17.895Z,7.87
2023-02-04T04:39:44.677Z,9.80
2023-02-04T04:42:11.407Z,8.60
2023-02-04T04:44:38.205Z,13.07
2023-02-04T04:47:04.917Z,18.67
2023-02-04T04:49:31.691Z,11.30
2023-02-04T04:51:58.396Z,18.20
2023-02-04T04:54:25.141Z,18.53
2023-02-04T04:56:51.808Z,15.70
2023-02-04T04:59:18.653Z,18.10
2023-02-04T05:04:20.948Z,14.67
2023-02-04T05:06:47.770Z,14.47
2023-02-04T05:09:16.666Z,15.40
2023-02-04T05:11:43.396Z,19.07
2023-02-04T05:14:10.891Z,13.13
2023-02-04T05:16:37.681Z,9.87
2023-02-04T05:19:04.391Z,10.43
2023-02-04T05:21:31.105Z,17.37
2023-02-04T05:23:57.805Z,24.93
2023-02-04T05:26:30.186Z,12.70
2023-02-04T05:28:57.773Z,13.07
2023-02-04T05:31:24.951Z,16.40
2023-02-04T05:33:51.840Z,13.87
2023-02-04T05:36:18.594Z,12.70
2023-02-04T05:38:45.367Z,18.20
2023-02-04T05:41:12.269Z,16.23
2023-02-04T05:43:39.747Z,15.93
2023-02-04T05:46:06.817Z,11.80
2023-02-04T05:48:33.620Z,12.00
2023-02-04T05:51:00.334Z,13.50
2023-02-04T05:53:27.057Z,17.73
2023-02-04T05:55:53.742Z,19.33
2023-02-04T05:58:20.518Z,11.93
2023-02-04T06:00:47.211Z,13.83
2023-02-04T06:03:14.564Z,10.13
2023-02-04T06:05:41.562Z,15.83
2023-02-04T06:08:08.363Z,14.93
2023-02-04T06:10:35.036Z,16.27
2023-02-04T06:13:01.821Z,8.27
2023-02-04T06:15:28.525Z,12.40
2023-02-04T06:17:55.290Z,7.50
2023-02-04T06:20:22.064Z,9.23
2023-02-04T06:22:51.623Z,8.00
2023-02-04T06:25:18.945Z,12.20
2023-02-04T06:27:45.745Z,21.67
2023-02-04T06:30:13.635Z,12.20
2023-02-04T06:32:40.754Z,13.47
2023-02-04T06:35:08.602Z,6.50
2023-02-04T06:37:35.295Z,11.87
2023-02-04T06:40:02.111Z,9.27
2023-02-04T06:42:28.815Z,9.33
2023-02-04T06:44:55.497Z,11.37
2023-02-04T06:47:22.909Z,5.80
2023-02-04T06:49:49.622Z,16.63
2023-02-04T06:52:16.313Z,11.13
2023-02-04T06:54:43.172Z,11.63
2023-02-04T06:57:10.004Z,12.27
2023-02-04T06:59:39.893Z,6.50
2023-02-04T07:02:07.936Z,9.13
2023-02-04T07:04:35.373Z,11.13
2023-02-04T07:07:02.103Z,12.03
2023-02-04T07:09:29.026Z,11.60
2023-02-04T07:11:55.729Z,10.83
2023-02-04T07:14:22.443Z,9.73
2023-02-04T07:16:49.541Z,12.87
2023-02-04T07:19:16.257Z,11.37
2023-02-04T07:21:42.929Z,16.53
2023-02-04T07:24:09.678Z,11.50
2023-02-04T07:26:36.434Z,10.90
2023-02-04T07:29:03.142Z,10.50
2023-02-04T07:31:29.938Z,11.57
2023-02-04T07:33:57.111Z,13.00
2023-02-04T07:36:23.983Z,11.00
2023-02-04T07:38:50.739Z,12.00
2023-02-04T07:41:17.561Z,14.50
2023-02-04T07:43:44.582Z,19.27
2023-02-04T07:46:11.744Z,12.83
2023-02-04T07:48:38.879Z,13.73
2023-02-04T07:51:05.863Z,13.93
2023-02-04T07:53:32.992Z,8.63
2023-02-04T07:55:59.746Z,10.77
2023-02-04T07:58:26.587Z,10.67
2023-02-04T08:00:53.331Z,8.43
2023-02-04T08:03:20.065Z,13.10
2023-02-04T08:05:46.770Z,7.57
2023-02-04T08:08:13.573Z,5.03
2023-02-04T08:10:40.272Z,7.57
2023-02-04T08:13:07.029Z,5.27
2023-02-04T08:15:34.145Z,7.13
2023-02-04T08:18:00.884Z,11.37
2023-02-04T08:20:28.112Z,12.60
2023-02-04T08:22:54.856Z,11.20
2023-02-04T08:25:21.558Z,11.30
2023-02-04T08:27:48.312Z,10.20
2023-02-04T08:30:15.357Z,12.90
2023-02-04T08:32:42.057Z,9.83
2023-02-04T08:35:09.165Z,11.50
2023-02-04T08:37:35.942Z,8.80
2023-02-04T08:40:02.696Z,6.43
2023-02-04T08:42:29.542Z,11.33
2023-02-04T08:44:56.390Z,8.73
2023-02-04T08:47:23.120Z,9.63
2023-02-04T08:49:49.844Z,7.00
2023-02-04T08:52:16.576Z,9.03
2023-02-04T08:54:43.420Z,7.87
2023-02-04T08:57:10.224Z,9.97
2023-02-04T08:59:36.931Z,8.93
2023-02-04T09:02:03.889Z,8.40
2023-02-04T09:04:30.693Z,7.20
2023-02-04T09:06:57.420Z,13.30
2023-02-04T09:09:26.157Z,11.20
2023-02-04T09:11:53.313Z,11.80
2023-02-04T09:14:20.044Z,13.30
2023-02-04T09:16:49.033Z,9.30
2023-02-04T09:19:16.634Z,6.20
2023-02-04T09:21:43.345Z,7.40
2023-02-04T09:24:10.088Z,7.80
2023-02-04T09:26:36.829Z,6.00
2023-02-04T09:29:03.970Z,6.97
2023-02-04T09:31:30.812Z,5.87
2023-02-04T09:33:58.153Z,6.40
2023-02-04T09:36:28.452Z,6.40
2023-02-04T09:38:55.525Z,9.67
2023-02-04T09:41:22.689Z,6.50
2023-02-04T09:43:50.192Z,6.80
2023-02-04T09:46:28.551Z,5.63
2023-02-04T09:48:56.132Z,5.63
2023-02-04T09:51:26.456Z,4.67
2023-02-04T09:53:55.891Z,5.37
2023-02-04T09:56:23.156Z,5.10
2023-02-04T09:58:50.776Z,7.13
2023-02-04T10:01:19.520Z,4.00
2023-02-04T10:03:48.286Z,4.33
2023-02-04T10:06:16.741Z,4.43
2023-02-04T10:08:44.812Z,5.03
2023-02-04T10:11:13.307Z,4.83
2023-02-04T10:13:45.070Z,13.00
2023-02-04T10:16:29.630Z,6.17
2023-02-04T10:19:02.466Z,4.93
2023-02-04T10:21:39.798Z,6.27
2023-02-04T10:24:22.552Z,4.17
2023-02-04T10:26:49.417Z,5.83
2023-02-04T10:29:19.819Z,4.80
2023-02-04T10:31:49.116Z,7.17
2023-02-04T10:34:23.220Z,7.90
2023-02-04T10:36:52.603Z,9.40
2023-02-04T10:39:24.847Z,9.23
2023-02-04T10:41:54.113Z,5.20
2023-02-04T10:44:28.110Z,5.37
2023-02-04T10:47:15.877Z,5.90
2023-02-04T10:50:18.091Z,4.50
2023-02-04T10:52:48.768Z,5.50
2023-02-04T10:55:18.473Z,5.50
2023-02-04T10:57:48.852Z,4.90
2023-02-04T11:00:18.258Z,5.63
2023-02-04T11:02:48.248Z,6.30
2023-02-04T11:05:18.422Z,6.83
2023-02-04T11:07:46.732Z,5.50
2023-02-04T11:10:21.586Z,6.13
2023-02-04T11:12:54.507Z,9.97
2023-02-04T11:15:50.409Z,4.93
2023-02-04T11:18:20.591Z,4.97
2023-02-04T11:20:53.241Z,4.47
2023-02-04T11:23:25.778Z,13.53
2023-02-04T11:26:02.342Z,4.30
2023-02-04T11:28:29.070Z,4.10
2023-02-04T11:31:00.655Z,7.00
2023-02-04T11:33:38.690Z,5.30
2023-02-04T11:36:07.923Z,7.17
2023-02-04T11:38:34.914Z,4.20
2023-02-04T11:41:01.961Z,5.77
2023-02-04T11:43:33.382Z,5.80
2023-02-04T11:46:13.528Z,4.57
2023-02-04T11:48:40.563Z,4.30
2023-02-04T11:51:17.183Z,11.03
2023-02-04T11:53:44.357Z,7.10
2023-02-04T11:56:18.869Z,4.27
2023-02-04T11:58:46.218Z,4.60
2023-02-04T12:01:25.202Z,7.93
2023-02-04T12:04:01.299Z,5.57
2023-02-04T12:06:34.025Z,6.00
2023-02-04T12:09:29.944Z,6.00
2023-02-04T12:12:02.250Z,5.50
2023-02-04T12:14:40.078Z,4.80
2023-02-04T12:17:16.656Z,7.10
2023-02-04T12:19:43.368Z,4.50
2023-02-04T12:22:10.173Z,4.50
2023-02-04T12:24:36.920Z,3.60
2023-02-04T12:27:03.730Z,4.60
2023-02-04T12:29:30.404Z,4.47
2023-02-04T12:31:57.208Z,4.07
2023-02-04T12:34:24.728Z,6.10
2023-02-04T12:36:51.599Z,4.70
2023-02-04T12:39:18.337Z,6.50
2023-02-04T12:41:45.076Z,5.07
2023-02-04T12:44:11.841Z,4.10
2023-02-04T12:46:38.708Z,4.30
2023-02-04T12:49:05.508Z,4.83
2023-02-04T12:51:33.253Z,6.73
2023-02-04T12:53:59.987Z,4.50
2023-02-04T12:56:26.670Z,3.80
2023-02-04T12:58:53.421Z,3.30
2023-02-04T13:01:20.130Z,5.43
2023-02-04T13:03:46.907Z,3.47
2023-02-04T13:06:13.646Z,6.17
2023-02-04T13:08:40.388Z,7.47
2023-02-04T13:11:07.113Z,5.10
2023-02-04T13:13:33.840Z,4.63
2023-02-04T13:16:00.757Z,4.90
2023-02-04T13:18:27.532Z,4.50
2023-02-04T13:20:54.265Z,5.00
2023-02-04T13:23:21.030Z,4.27
2023-02-04T13:25:47.831Z,4.00
2023-02-04T13:28:14.618Z,5.77
2023-02-04T13:30:41.496Z,4.50
2023-02-04T13:33:08.245Z,11.07
2023-02-04T13:35:35.354Z,14.07
2023-02-04T13:38:02.228Z,4.90
2023-02-04T13:40:28.955Z,9.10
2023-02-04T13:42:56.088Z,5.53
2023-02-04T13:45:22.983Z,6.40
2023-02-04T13:47:49.779Z,7.57
2023-02-04T13:50:17.054Z,7.13
2023-02-04T13:52:43.878Z,9.80
2023-02-04T13:55:10.965Z,9.73
2023-02-04T13:57:37.972Z,8.00
2023-02-04T14:00:06.946Z,8.17
2023-02-04T14:02:34.175Z,6.30
2023-02-04T14:05:01.652Z,6.20
2023-02-04T14:07:28.420Z,7.37
2023-02-04T14:09:55.101Z,8.57
2023-02-04T14:12:22.000Z,8.90
2023-02-04T14:14:48.713Z,7.30
2023-02-04T14:17:15.385Z,11.10
2023-02-04T14:19:42.117Z,5.70
2023-02-04T14:22:12.896Z,6.57
2023-02-04T14:24:42.483Z,5.50
2023-02-04T14:27:10.503Z,5.30
2023-02-04T14:29:37.207Z,6.97
2023-02-04T14:32:04.224Z,5.67
2023-02-04T14:34:31.089Z,8.00
2023-02-04T14:36:57.840Z,5.50
2023-02-04T14:39:24.576Z,4.70
2023-02-04T14:41:51.305Z,7.13
2023-02-04T14:44:20.775Z,8.90
2023-02-04T14:46:48.958Z,11.57
2023-02-04T14:49:16.486Z,7.30
2023-02-04T14:51:43.519Z,10.80
2023-02-04T14:54:10.461Z,6.87
2023-02-04T14:56:37.226Z,8.00
2023-02-04T14:59:04.002Z,5.53
2023-02-04T15:01:31.010Z,6.77
2023-02-04T15:03:58.320Z,7.63
2023-02-04T15:06:25.055Z,8.83
2023-02-04T15:08:52.371Z,6.30
2023-02-04T15:11:19.106Z,5.63
2023-02-04T15:13:45.873Z,5.50
2023-02-04T15:16:14.271Z,5.23
2023-02-04T15:18:41.391Z,9.20
2023-02-04T15:21:08.296Z,7.30
2023-02-04T15:23:35.122Z,5.40
2023-02-04T15:26:02.642Z,10.70
2023-02-04T15:28:30.947Z,5.63
2023-02-04T15:30:58.269Z,6.83
2023-02-04T15:33:25.060Z,8.07
2023-02-04T15:35:51.827Z,8.23
2023-02-04T15:38:18.543Z,7.27
2023-02-04T15:40:45.383Z,8.10
2023-02-04T15:43:12.122Z,7.73
2023-02-04T15:45:41.427Z,4.60
2023-02-04T15:48:08.800Z,8.40
2023-02-04T15:50:36.528Z,10.63
2023-02-04T15:53:03.979Z,13.90
2023-02-04T15:55:30.912Z,15.80
2023-02-04T15:57:57.592Z,14.10
2023-02-04T16:00:25.214Z,14.13
2023-02-04T16:02:52.058Z,6.93
2023-02-04T16:05:18.862Z,7.93
2023-02-04T16:07:45.632Z,10.60
2023-02-04T16:10:12.369Z,8.83
2023-02-04T16:12:39.097Z,8.43
2023-02-04T16:15:06.355Z,8.10
2023-02-04T16:17:33.049Z,10.30
2023-02-04T16:19:59.805Z,10.17
2023-02-04T16:22:26.485Z,10.93
2023-02-04T16:24:53.372Z,12.40
2023-02-04T16:27:20.254Z,13.67
2023-02-04T16:29:47.404Z,10.53
2023-02-04T16:32:14.514Z,19.20
2023-02-04T16:34:41.723Z,14.07
2023-02-04T16:37:08.471Z,71.43
2023-02-04T16:39:37.300Z,13.37
2023-02-04T16:42:06.346Z,10.20
2023-02-04T16:44:33.171Z,19.23
2023-02-04T16:47:00.031Z,17.33
2023-02-04T16:49:26.811Z,16.93
2023-02-04T16:51:53.596Z,21.90
2023-02-04T16:54:20.340Z,17.00
2023-02-04T16:56:47.470Z,13.50
2023-02-04T16:59:14.329Z,13.60
2023-02-04T17:01:41.116Z,12.57
2023-02-04T17:04:07.950Z,18.93
2023-02-04T17:06:35.821Z,14.77
2023-02-04T17:09:02.650Z,12.10
2023-02-04T17:11:29.402Z,13.13
2023-02-04T17:14:00.600Z,10.53
2023-02-04T17:16:28.559Z,16.83
2023-02-04T17:18:55.481Z,8.73
2023-02-04T17:21:24.750Z,10.37
2023-02-04T17:23:51.637Z,11.80
2023-02-04T17:26:19.102Z,12.70
2023-02-04T17:28:46.131Z,12.50
2023-02-04T17:31:13.004Z,12.20
2023-02-04T17:33:39.860Z,12.70
2023-02-04T17:36:07.318Z,16.33
2023-02-04T17:38:34.108Z,15.30
2023-02-04T17:41:02.607Z,15.23
2023-02-04T17:43:29.420Z,18.73
2023-02-04T17:45:56.198Z,26.27
2023-02-04T17:48:23.062Z,19.83
2023-02-04T17:50:49.837Z,15.63
2023-02-04T17:53:16.662Z,34.63
2023-02-04T17:55:43.408Z,34.33
2023-02-04T17:58:21.943Z,17.53
2023-02-04T18:00:49.972Z,13.30
2023-02-04T18:03:20.611Z,14.23
2023-02-04T18:05:50.189Z,12.23
2023-02-04T18:08:27.245Z,9.27
2023-02-04T18:10:55.624Z,15.40
2023-02-04T18:13:34.045Z,15.50
2023-02-04T18:16:31.302Z,16.43
2023-02-04T18:19:18.082Z,13.80
2023-02-04T18:21:46.548Z,11.57
2023-02-04T18:24:19.365Z,15.50
2023-02-04T18:26:47.765Z,16.40
2023-02-04T18:29:34.158Z,19.13
2023-02-04T18:32:14.355Z,21.67
2023-02-04T18:34:44.665Z,22.33
2023-02-04T18:37:32.318Z,12.73
2023-02-04T18:40:11.607Z,16.23
2023-02-04T18:42:40.111Z,14.03
2023-02-04T18:45:30.853Z,14.23
2023-02-04T18:48:00.530Z,19.30
2023-02-04T18:50:35.156Z,13.70
2023-02-04T18:53:07.885Z,14.77
2023-02-04T18:55:48.688Z,15.73
2023-02-04T18:58:34.039Z,15.07
2023-02-04T19:01:10.103Z,14.43
2023-02-04T19:03:44.849Z,18.47
2023-02-04T19:06:42.704Z,15.77
2023-02-04T19:09:12.443Z,19.30
2023-02-04T19:11:39.123Z,24.33
2023-02-04T19:14:42.645Z,26.53
2023-02-04T19:17:25.234Z,29.03
2023-02-04T19:20:00.588Z,28.13
2023-02-04T19:22:27.700Z,30.60
2023-02-04T19:25:21.092Z,27.80
2023-02-04T19:27:56.279Z,24.60
2023-02-04T19:30:29.055Z,28.83
2023-02-04T19:32:59.112Z,24.77
2023-02-04T19:35:38.917Z,23.03
2023-02-04T19:38:22.104Z,17.33
2023-02-04T19:40:50.893Z,22.40
2023-02-04T19:43:26.868Z,13.80
2023-02-04T19:45:54.399Z,20.20
2023-02-04T19:48:30.938Z,18.83
2023-02-04T19:50:57.716Z,20.80
2023-02-04T19:53:29.880Z,16.27
2023-02-04T19:55:56.890Z,21.03
2023-02-04T19:58:37.578Z,18.60
2023-02-04T20:01:08.319Z,28.40
2023-02-04T20:03:40.927Z,29.97
2023-02-04T20:06:10.546Z,40.40
2023-02-04T20:08:43.101Z,48.53
2023-02-04T20:11:24.840Z,35.53
2023-02-04T20:14:10.628Z,31.63
2023-02-04T20:17:00.244Z,36.17
2023-02-04T20:19:31.529Z,27.23
2023-02-04T20:22:17.179Z,25.50
2023-02-04T20:24:46.698Z,19.67
2023-02-04T20:27:45.724Z,24.40
2023-02-04T20:30:12.501Z,19.27
2023-02-04T20:32:41.700Z,21.13
2023-02-04T20:35:13.874Z,28.17
2023-02-04T20:37:44.073Z,22.07
2023-02-04T20:40:24.152Z,24.30
2023-02-04T20:43:00.115Z,31.20
2023-02-04T20:45:49.732Z,25.17
2023-02-04T20:48:16.488Z,22.37
2023-02-04T20:50:47.976Z,30.67
2023-02-04T20:53:23.363Z,24.87
2023-02-04T20:56:05.122Z,26.17
2023-02-04T20:58:41.258Z,23.67
2023-02-04T21:01:17.133Z,23.23
2023-02-04T21:03:45.748Z,25.40
2023-02-04T21:06:27.685Z,27.97
2023-02-04T21:08:58.802Z,24.93
2023-02-04T21:11:26.436Z,27.33
2023-02-04T21:13:54.311Z,28.40
2023-02-04T21:16:21.971Z,29.13
2023-02-04T21:18:49.015Z,26.50
2023-02-04T21:21:15.778Z,31.40
2023-02-04T21:23:42.537Z,23.67
2023-02-04T21:26:09.332Z,23.77
2023-02-04T21:28:36.288Z,25.90
2023-02-04T21:31:03.362Z,25.20
2023-02-04T21:33:30.263Z,27.50
2023-02-04T21:35:57.519Z,34.97
2023-02-04T21:38:24.276Z,28.60
2023-02-04T21:40:51.125Z,32.87
2023-02-04T21:43:17.951Z,29.33
2023-02-04T21:45:44.663Z,39.60
2023-02-04T21:48:11.930Z,28.03
2023-02-04T21:50:38.891Z,30.80
2023-02-04T21:53:07.257Z,26.07
2023-02-04T21:55:34.769Z,28.93
2023-02-04T21:58:02.027Z,30.83
2023-02-04T22:00:29.004Z,31.57
2023-02-04T22:02:56.221Z,30.40
2023-02-04T22:05:24.096Z,32.43
2023-02-04T22:07:51.600Z,25.53
2023-02-04T22:10:21.750Z,26.80
2023-02-04T22:12:48.716Z,27.53
2023-02-04T22:15:15.622Z,29.53
2023-02-04T22:17:42.580Z,24.10
2023-02-04T22:20:10.199Z,25.63
2023-02-04T22:22:37.332Z,26.87
2023-02-04T22:25:04.561Z,25.07
2023-02-04T22:27:31.302Z,27.60
2023-02-04T22:29:58.050Z,28.20
2023-02-04T22:32:24.863Z,28.43
2023-02-04T22:34:52.048Z,31.73
2023-02-04T22:37:18.788Z,33.00
2023-02-04T22:39:45.505Z,32.93
2023-02-04T22:42:12.378Z,29.40
2023-02-04T22:44:39.109Z,29.07
2023-02-04T22:47:06.015Z,27.03
2023-02-04T22:49:33.410Z,29.90
2023-02-04T22:52:00.169Z,33.87
2023-02-04T22:54:26.923Z,27.67
2023-02-04T22:56:53.738Z,28.60
2023-02-04T22:59:20.479Z,32.47
2023-02-04T23:01:47.300Z,28.90
2023-02-04T23:04:14.454Z,25.70
2023-02-04T23:06:41.178Z,36.27
2023-02-04T23:09:08.062Z,33.60
2023-02-04T23:11:34.965Z,35.80
2023-02-04T23:14:01.866Z,30.17
2023-02-04T23:16:28.592Z,28.40
2023-02-04T23:21:26.640Z,38.10
2023-02-04T23:23:53.566Z,29.00
2023-02-04T23:26:21.115Z,34.40
2023-02-04T23:31:38.576Z,34.97
2023-02-04T23:34:08.334Z,29.30
2023-02-04T23:36:36.620Z,31.13
2023-02-04T23:39:04.183Z,30.00
2023-02-04T23:41:30.939Z,30.13
2023-02-04T23:43:57.644Z,36.43
2023-02-04T23:46:24.425Z,30.77
2023-02-04T23:48:51.085Z,36.93
2023-02-04T23:51:17.850Z,32.70
2023-02-04T23:53:44.584Z,36.00
2023-02-04T23:56:11.344Z,30.90
2023-02-04T23:58:38.108Z,30.03
